sensor_id;sensor_type;location;lat;lon;timestamp;P1;durP1;ratioP1;P2;durP2;ratioP2
1925;SDS011;964;42.606;23.588;2023-11-21T00:00:22;12.00;;;7.87;;
1925;SDS011;964;42.606;23.588;2023-11-21T00:02:49;13.07;;;8.70;;
1925;SDS011;964;42.606;23.588;2023-11-21T00:05:16;13.47;;;7.90;;
1925;SDS011;964;42.606;23.588;2023-11-21T00:07:43;11.60;;;6.63;;
1925;SDS011;964;42.606;23.588;2023-11-21T00:10:10;10.87;;;5.27;;
1925;SDS011;964;42.606;23.588;2023-11-21T00:12:39;8.03;;;4.53;;
1925;SDS011;964;42.606;23.588;2023-11-21T00:15:07;8.63;;;5.47;;
1925;SDS011;964;42.606;23.588;2023-11-21T00:17:37;6.10;;;4.27;;
1925;SDS011;964;42.606;23.588;2023-11-21T00:20:05;6.60;;;3.70;;
1925;SDS011;964;42.606;23.588;2023-11-21T00:22:33;5.93;;;3.90;;
1925;SDS011;964;42.606;23.588;2023-11-21T00:25:00;5.93;;;4.20;;
1925;SDS011;964;42.606;23.588;2023-11-21T00:27:29;4.43;;;3.80;;
1925;SDS011;964;42.606;23.588;2023-11-21T00:29:54;6.60;;;4.10;;
1925;SDS011;964;42.606;23.588;2023-11-21T00:32:21;5.70;;;3.93;;
1925;SDS011;964;42.606;23.588;2023-11-21T00:34:49;4.57;;;3.73;;
1925;SDS011;964;42.606;23.588;2023-11-21T00:37:16;7.60;;;3.87;;
1925;SDS011;964;42.606;23.588;2023-11-21T00:39:43;4.90;;;3.83;;
1925;SDS011;964;42.606;23.588;2023-11-21T00:42:10;7.43;;;4.23;;
1925;SDS011;964;42.606;23.588;2023-11-21T00:44:37;4.80;;;3.53;;
1925;SDS011;964;42.606;23.588;2023-11-21T00:47:04;5.00;;;4.20;;
1925;SDS011;964;42.606;23.588;2023-11-21T00:49:31;6.13;;;4.20;;
1925;SDS011;964;42.606;23.588;2023-11-21T00:51:59;5.93;;;4.60;;
1925;SDS011;964;42.606;23.588;2023-11-21T00:54:26;9.63;;;5.67;;
1925;SDS011;964;42.606;23.588;2023-11-21T00:56:53;5.80;;;4.13;;
1925;SDS011;964;42.606;23.588;2023-11-21T00:59:20;6.87;;;5.20;;
1925;SDS011;964;42.606;23.588;2023-11-21T01:01:48;10.17;;;4.80;;
1925;SDS011;964;42.606;23.588;2023-11-21T01:04:14;6.90;;;5.33;;
1925;SDS011;964;42.606;23.588;2023-11-21T01:06:41;7.53;;;5.97;;
1925;SDS011;964;42.606;23.588;2023-11-21T01:09:09;7.80;;;5.10;;
1925;SDS011;964;42.606;23.588;2023-11-21T01:11:36;11.00;;;5.23;;
1925;SDS011;964;42.606;23.588;2023-11-21T01:14:04;4.93;;;3.70;;
1925;SDS011;964;42.606;23.588;2023-11-21T01:16:31;5.20;;;3.97;;
1925;SDS011;964;42.606;23.588;2023-11-21T01:18:58;12.33;;;5.43;;
1925;SDS011;964;42.606;23.588;2023-11-21T01:21:25;7.43;;;5.23;;
1925;SDS011;964;42.606;23.588;2023-11-21T01:23:53;5.60;;;4.73;;
1925;SDS011;964;42.606;23.588;2023-11-21T01:26:21;10.20;;;5.20;;
1925;SDS011;964;42.606;23.588;2023-11-21T01:28:48;9.37;;;5.57;;
1925;SDS011;964;42.606;23.588;2023-11-21T01:31:15;8.53;;;5.50;;
1925;SDS011;964;42.606;23.588;2023-11-21T01:33:41;6.73;;;4.20;;
1925;SDS011;964;42.606;23.588;2023-11-21T01:36:09;7.53;;;5.03;;
1925;SDS011;964;42.606;23.588;2023-11-21T01:38:35;10.63;;;5.47;;
1925;SDS011;964;42.606;23.588;2023-11-21T01:41:02;8.00;;;5.63;;
1925;SDS011;964;42.606;23.588;2023-11-21T01:43:30;10.57;;;5.50;;
1925;SDS011;964;42.606;23.588;2023-11-21T01:45:57;8.23;;;5.43;;
1925;SDS011;964;42.606;23.588;2023-11-21T01:48:25;6.30;;;4.70;;
1925;SDS011;964;42.606;23.588;2023-11-21T01:50:52;8.10;;;4.87;;
1925;SDS011;964;42.606;23.588;2023-11-21T01:53:19;8.57;;;4.70;;
1925;SDS011;964;42.606;23.588;2023-11-21T01:55:46;8.63;;;5.37;;
1925;SDS011;964;42.606;23.588;2023-11-21T01:58:14;6.70;;;5.00;;
1925;SDS011;964;42.606;23.588;2023-11-21T02:00:43;8.17;;;5.27;;
1925;SDS011;964;42.606;23.588;2023-11-21T02:03:10;6.33;;;4.80;;
1925;SDS011;964;42.606;23.588;2023-11-21T02:05:37;6.60;;;5.10;;
1925;SDS011;964;42.606;23.588;2023-11-21T02:08:04;6.53;;;4.93;;
1925;SDS011;964;42.606;23.588;2023-11-21T02:10:31;5.47;;;4.10;;
1925;SDS011;964;42.606;23.588;2023-11-21T02:12:58;12.27;;;7.03;;
1925;SDS011;964;42.606;23.588;2023-11-21T02:15:27;14.83;;;7.47;;
1925;SDS011;964;42.606;23.588;2023-11-21T02:17:56;14.77;;;8.90;;
1925;SDS011;964;42.606;23.588;2023-11-21T02:20:24;28.80;;;11.50;;
1925;SDS011;964;42.606;23.588;2023-11-21T02:22:53;18.10;;;9.50;;
1925;SDS011;964;42.606;23.588;2023-11-21T02:25:23;20.23;;;9.77;;
1925;SDS011;964;42.606;23.588;2023-11-21T02:27:50;16.17;;;9.50;;
1925;SDS011;964;42.606;23.588;2023-11-21T02:30:16;16.07;;;10.57;;
1925;SDS011;964;42.606;23.588;2023-11-21T02:32:43;23.40;;;10.90;;
1925;SDS011;964;42.606;23.588;2023-11-21T02:35:11;21.93;;;11.90;;
1925;SDS011;964;42.606;23.588;2023-11-21T02:37:38;23.37;;;12.80;;
1925;SDS011;964;42.606;23.588;2023-11-21T02:40:08;19.47;;;11.53;;
1925;SDS011;964;42.606;23.588;2023-11-21T02:42:37;18.37;;;9.83;;
1925;SDS011;964;42.606;23.588;2023-11-21T02:45:05;15.00;;;7.90;;
1925;SDS011;964;42.606;23.588;2023-11-21T02:47:32;18.37;;;9.23;;
1925;SDS011;964;42.606;23.588;2023-11-21T02:49:59;18.33;;;8.07;;
1925;SDS011;964;42.606;23.588;2023-11-21T02:52:26;14.37;;;8.40;;
1925;SDS011;964;42.606;23.588;2023-11-21T02:54:53;15.40;;;10.17;;
1925;SDS011;964;42.606;23.588;2023-11-21T02:57:21;17.23;;;9.30;;
1925;SDS011;964;42.606;23.588;2023-11-21T02:59:48;17.73;;;11.33;;
1925;SDS011;964;42.606;23.588;2023-11-21T03:02:15;22.23;;;11.80;;
1925;SDS011;964;42.606;23.588;2023-11-21T03:04:42;19.70;;;11.60;;
1925;SDS011;964;42.606;23.588;2023-11-21T03:07:09;16.40;;;10.90;;
1925;SDS011;964;42.606;23.588;2023-11-21T03:09:36;16.53;;;10.50;;
1925;SDS011;964;42.606;23.588;2023-11-21T03:12:03;17.20;;;9.50;;
1925;SDS011;964;42.606;23.588;2023-11-21T03:14:32;16.20;;;9.33;;
1925;SDS011;964;42.606;23.588;2023-11-21T03:16:58;14.10;;;9.07;;
1925;SDS011;964;42.606;23.588;2023-11-21T03:19:25;10.60;;;7.77;;
1925;SDS011;964;42.606;23.588;2023-11-21T03:21:52;13.17;;;8.17;;
1925;SDS011;964;42.606;23.588;2023-11-21T03:24:19;11.27;;;7.37;;
1925;SDS011;964;42.606;23.588;2023-11-21T03:26:47;9.43;;;7.03;;
1925;SDS011;964;42.606;23.588;2023-11-21T03:29:15;11.20;;;7.20;;
1925;SDS011;964;42.606;23.588;2023-11-21T03:31:43;12.37;;;7.17;;
1925;SDS011;964;42.606;23.588;2023-11-21T03:34:14;9.20;;;7.60;;
1925;SDS011;964;42.606;23.588;2023-11-21T03:36:43;11.97;;;8.03;;
1925;SDS011;964;42.606;23.588;2023-11-21T03:39:11;11.40;;;6.70;;
1925;SDS011;964;42.606;23.588;2023-11-21T03:41:38;10.73;;;6.70;;
1925;SDS011;964;42.606;23.588;2023-11-21T03:44:04;9.40;;;6.80;;
1925;SDS011;964;42.606;23.588;2023-11-21T03:46:31;7.80;;;6.40;;
1925;SDS011;964;42.606;23.588;2023-11-21T03:49:00;12.00;;;7.50;;
1925;SDS011;964;42.606;23.588;2023-11-21T03:51:26;15.60;;;7.93;;
1925;SDS011;964;42.606;23.588;2023-11-21T03:53:53;11.30;;;8.20;;
1925;SDS011;964;42.606;23.588;2023-11-21T03:56:20;10.73;;;7.43;;
1925;SDS011;964;42.606;23.588;2023-11-21T03:58:47;11.60;;;7.53;;
1925;SDS011;964;42.606;23.588;2023-11-21T04:01:18;9.80;;;7.50;;
1925;SDS011;964;42.606;23.588;2023-11-21T04:03:47;14.40;;;7.80;;
1925;SDS011;964;42.606;23.588;2023-11-21T04:06:16;17.93;;;8.77;;
1925;SDS011;964;42.606;23.588;2023-11-21T04:08:43;20.23;;;8.97;;
1925;SDS011;964;42.606;23.588;2023-11-21T04:11:10;14.10;;;10.53;;
1925;SDS011;964;42.606;23.588;2023-11-21T04:13:38;16.60;;;9.70;;
1925;SDS011;964;42.606;23.588;2023-11-21T04:16:05;13.10;;;8.90;;
1925;SDS011;964;42.606;23.588;2023-11-21T04:18:33;19.47;;;11.03;;
1925;SDS011;964;42.606;23.588;2023-11-21T04:21:00;19.50;;;10.83;;
1925;SDS011;964;42.606;23.588;2023-11-21T04:23:29;17.80;;;10.40;;
1925;SDS011;964;42.606;23.588;2023-11-21T04:25:56;15.27;;;8.80;;
1925;SDS011;964;42.606;23.588;2023-11-21T04:28:24;14.90;;;8.33;;
1925;SDS011;964;42.606;23.588;2023-11-21T04:30:51;11.93;;;8.10;;
1925;SDS011;964;42.606;23.588;2023-11-21T04:33:17;20.77;;;8.97;;
1925;SDS011;964;42.606;23.588;2023-11-21T04:35:44;21.07;;;11.17;;
1925;SDS011;964;42.606;23.588;2023-11-21T04:38:11;17.57;;;9.10;;
1925;SDS011;964;42.606;23.588;2023-11-21T04:40:39;12.90;;;9.10;;
1925;SDS011;964;42.606;23.588;2023-11-21T04:43:06;17.83;;;10.17;;
1925;SDS011;964;42.606;23.588;2023-11-21T04:45:33;16.70;;;9.97;;
1925;SDS011;964;42.606;23.588;2023-11-21T04:47:59;11.10;;;8.00;;
1925;SDS011;964;42.606;23.588;2023-11-21T04:50:26;18.43;;;8.93;;
1925;SDS011;964;42.606;23.588;2023-11-21T04:52:53;29.43;;;13.37;;
1925;SDS011;964;42.606;23.588;2023-11-21T04:55:20;14.87;;;8.67;;
1925;SDS011;964;42.606;23.588;2023-11-21T04:57:48;18.23;;;8.60;;
1925;SDS011;964;42.606;23.588;2023-11-21T05:00:15;18.93;;;8.00;;
1925;SDS011;964;42.606;23.588;2023-11-21T05:02:42;7.70;;;5.90;;
1925;SDS011;964;42.606;23.588;2023-11-21T05:05:09;12.37;;;7.60;;
1925;SDS011;964;42.606;23.588;2023-11-21T05:07:37;12.03;;;8.10;;
1925;SDS011;964;42.606;23.588;2023-11-21T05:10:04;9.63;;;7.30;;
1925;SDS011;964;42.606;23.588;2023-11-21T05:12:35;9.33;;;6.83;;
1925;SDS011;964;42.606;23.588;2023-11-21T05:15:05;10.90;;;7.27;;
1925;SDS011;964;42.606;23.588;2023-11-21T05:17:35;12.63;;;6.33;;
1925;SDS011;964;42.606;23.588;2023-11-21T05:20:02;6.80;;;6.10;;
1925;SDS011;964;42.606;23.588;2023-11-21T05:22:33;11.13;;;6.63;;
1925;SDS011;964;42.606;23.588;2023-11-21T05:25:00;12.73;;;6.20;;
1925;SDS011;964;42.606;23.588;2023-11-21T05:27:28;8.80;;;5.30;;
1925;SDS011;964;42.606;23.588;2023-11-21T05:29:55;5.50;;;4.80;;
1925;SDS011;964;42.606;23.588;2023-11-21T05:32:23;8.70;;;5.60;;
1925;SDS011;964;42.606;23.588;2023-11-21T05:34:50;8.70;;;5.33;;
1925;SDS011;964;42.606;23.588;2023-11-21T05:37:18;8.77;;;5.77;;
1925;SDS011;964;42.606;23.588;2023-11-21T05:39:44;9.40;;;6.63;;
1925;SDS011;964;42.606;23.588;2023-11-21T05:42:12;11.07;;;5.77;;
1925;SDS011;964;42.606;23.588;2023-11-21T05:44:40;11.93;;;5.40;;
1925;SDS011;964;42.606;23.588;2023-11-21T05:47:21;6.80;;;5.63;;
1925;SDS011;964;42.606;23.588;2023-11-21T05:50:04;7.33;;;6.00;;
1925;SDS011;964;42.606;23.588;2023-11-21T05:52:32;8.20;;;6.37;;
1925;SDS011;964;42.606;23.588;2023-11-21T05:54:59;7.57;;;5.70;;
1925;SDS011;964;42.606;23.588;2023-11-21T05:57:25;9.73;;;6.33;;
1925;SDS011;964;42.606;23.588;2023-11-21T05:59:52;11.80;;;6.80;;
1925;SDS011;964;42.606;23.588;2023-11-21T06:02:20;10.40;;;6.27;;
1925;SDS011;964;42.606;23.588;2023-11-21T06:04:46;7.40;;;6.53;;
1925;SDS011;964;42.606;23.588;2023-11-21T06:07:14;10.10;;;6.33;;
1925;SDS011;964;42.606;23.588;2023-11-21T06:09:41;9.90;;;6.60;;
1925;SDS011;964;42.606;23.588;2023-11-21T06:12:10;15.47;;;8.27;;
1925;SDS011;964;42.606;23.588;2023-11-21T06:14:36;13.80;;;9.00;;
1925;SDS011;964;42.606;23.588;2023-11-21T06:17:03;15.10;;;8.83;;
1925;SDS011;964;42.606;23.588;2023-11-21T06:19:30;12.67;;;8.57;;
1925;SDS011;964;42.606;23.588;2023-11-21T06:21:57;18.23;;;11.10;;
1925;SDS011;964;42.606;23.588;2023-11-21T06:24:25;15.90;;;9.27;;
1925;SDS011;964;42.606;23.588;2023-11-21T06:26:51;14.30;;;8.67;;
1925;SDS011;964;42.606;23.588;2023-11-21T06:29:18;17.53;;;7.90;;
1925;SDS011;964;42.606;23.588;2023-11-21T06:31:45;12.03;;;8.60;;
1925;SDS011;964;42.606;23.588;2023-11-21T06:34:12;12.50;;;8.70;;
1925;SDS011;964;42.606;23.588;2023-11-21T06:36:39;12.00;;;8.60;;
1925;SDS011;964;42.606;23.588;2023-11-21T06:39:06;16.00;;;8.27;;
1925;SDS011;964;42.606;23.588;2023-11-21T06:41:35;11.50;;;8.93;;
1925;SDS011;964;42.606;23.588;2023-11-21T06:44:04;11.37;;;8.40;;
1925;SDS011;964;42.606;23.588;2023-11-21T06:46:30;10.87;;;8.70;;
1925;SDS011;964;42.606;23.588;2023-11-21T06:48:58;14.87;;;10.47;;
1925;SDS011;964;42.606;23.588;2023-11-21T06:51:25;18.37;;;10.53;;
1925;SDS011;964;42.606;23.588;2023-11-21T06:53:51;19.13;;;11.03;;
1925;SDS011;964;42.606;23.588;2023-11-21T06:56:18;14.03;;;9.60;;
1925;SDS011;964;42.606;23.588;2023-11-21T06:58:47;13.90;;;10.73;;
1925;SDS011;964;42.606;23.588;2023-11-21T07:01:15;14.63;;;10.13;;
1925;SDS011;964;42.606;23.588;2023-11-21T07:03:41;12.53;;;8.87;;
1925;SDS011;964;42.606;23.588;2023-11-21T07:06:08;8.67;;;7.77;;
1925;SDS011;964;42.606;23.588;2023-11-21T07:08:35;11.73;;;7.10;;
1925;SDS011;964;42.606;23.588;2023-11-21T07:11:02;9.17;;;7.77;;
1925;SDS011;964;42.606;23.588;2023-11-21T07:13:29;8.27;;;6.47;;
1925;SDS011;964;42.606;23.588;2023-11-21T07:15:57;11.93;;;7.37;;
1925;SDS011;964;42.606;23.588;2023-11-21T07:18:24;7.40;;;6.30;;
1925;SDS011;964;42.606;23.588;2023-11-21T07:20:51;8.90;;;7.43;;
1925;SDS011;964;42.606;23.588;2023-11-21T07:23:18;10.43;;;7.37;;
1925;SDS011;964;42.606;23.588;2023-11-21T07:25:47;8.00;;;7.20;;
1925;SDS011;964;42.606;23.588;2023-11-21T07:28:14;9.53;;;7.13;;
1925;SDS011;964;42.606;23.588;2023-11-21T07:30:41;10.13;;;7.10;;
1925;SDS011;964;42.606;23.588;2023-11-21T07:33:09;12.90;;;7.17;;
1925;SDS011;964;42.606;23.588;2023-11-21T07:35:36;19.93;;;11.30;;
1925;SDS011;964;42.606;23.588;2023-11-21T07:38:03;12.50;;;8.80;;
1925;SDS011;964;42.606;23.588;2023-11-21T07:40:30;11.00;;;9.37;;
1925;SDS011;964;42.606;23.588;2023-11-21T07:42:57;11.97;;;9.67;;
1925;SDS011;964;42.606;23.588;2023-11-21T07:45:24;11.50;;;9.67;;
1925;SDS011;964;42.606;23.588;2023-11-21T07:47:52;13.67;;;9.70;;
1925;SDS011;964;42.606;23.588;2023-11-21T07:50:21;16.60;;;11.33;;
1925;SDS011;964;42.606;23.588;2023-11-21T07:52:48;16.03;;;11.67;;
1925;SDS011;964;42.606;23.588;2023-11-21T07:55:15;14.57;;;12.00;;
1925;SDS011;964;42.606;23.588;2023-11-21T07:57:42;12.70;;;10.07;;
1925;SDS011;964;42.606;23.588;2023-11-21T08:00:09;13.50;;;10.17;;
1925;SDS011;964;42.606;23.588;2023-11-21T08:02:37;14.23;;;10.17;;
1925;SDS011;964;42.606;23.588;2023-11-21T08:05:07;11.40;;;9.03;;
1925;SDS011;964;42.606;23.588;2023-11-21T08:07:35;12.43;;;9.83;;
1925;SDS011;964;42.606;23.588;2023-11-21T08:10:02;14.40;;;9.80;;
1925;SDS011;964;42.606;23.588;2023-11-21T08:12:30;16.10;;;10.73;;
1925;SDS011;964;42.606;23.588;2023-11-21T08:14:56;15.30;;;10.83;;
1925;SDS011;964;42.606;23.588;2023-11-21T08:17:23;26.67;;;15.40;;
1925;SDS011;964;42.606;23.588;2023-11-21T08:19:50;21.30;;;11.67;;
1925;SDS011;964;42.606;23.588;2023-11-21T08:22:17;16.20;;;10.70;;
1925;SDS011;964;42.606;23.588;2023-11-21T08:24:45;11.07;;;9.77;;
1925;SDS011;964;42.606;23.588;2023-11-21T08:27:12;13.47;;;9.90;;
1925;SDS011;964;42.606;23.588;2023-11-21T08:29:40;12.73;;;9.03;;
1925;SDS011;964;42.606;23.588;2023-11-21T08:32:07;11.80;;;10.03;;
1925;SDS011;964;42.606;23.588;2023-11-21T08:34:34;11.20;;;10.00;;
1925;SDS011;964;42.606;23.588;2023-11-21T08:37:01;10.50;;;9.30;;
1925;SDS011;964;42.606;23.588;2023-11-21T08:39:28;11.80;;;9.43;;
1925;SDS011;964;42.606;23.588;2023-11-21T08:41:56;11.30;;;8.60;;
1925;SDS011;964;42.606;23.588;2023-11-21T08:44:23;12.40;;;10.20;;
1925;SDS011;964;42.606;23.588;2023-11-21T08:46:50;11.43;;;8.67;;
1925;SDS011;964;42.606;23.588;2023-11-21T08:49:17;11.47;;;9.70;;
1925;SDS011;964;42.606;23.588;2023-11-21T08:51:44;9.20;;;8.30;;
1925;SDS011;964;42.606;23.588;2023-11-21T08:54:11;15.73;;;9.50;;
1925;SDS011;964;42.606;23.588;2023-11-21T08:56:37;13.00;;;10.50;;
1925;SDS011;964;42.606;23.588;2023-11-21T08:59:05;12.40;;;9.17;;
1925;SDS011;964;42.606;23.588;2023-11-21T09:01:33;17.13;;;10.00;;
1925;SDS011;964;42.606;23.588;2023-11-21T09:03:59;14.93;;;9.33;;
1925;SDS011;964;42.606;23.588;2023-11-21T09:06:27;12.63;;;9.43;;
1925;SDS011;964;42.606;23.588;2023-11-21T09:08:54;9.60;;;8.47;;
1925;SDS011;964;42.606;23.588;2023-11-21T09:11:21;13.43;;;9.30;;
1925;SDS011;964;42.606;23.588;2023-11-21T09:13:50;13.03;;;8.67;;
1925;SDS011;964;42.606;23.588;2023-11-21T09:16:19;12.13;;;9.43;;
1925;SDS011;964;42.606;23.588;2023-11-21T09:18:45;13.50;;;9.53;;
1925;SDS011;964;42.606;23.588;2023-11-21T09:21:12;12.20;;;9.47;;
1925;SDS011;964;42.606;23.588;2023-11-21T09:23:39;13.20;;;9.50;;
1925;SDS011;964;42.606;23.588;2023-11-21T09:26:06;19.43;;;9.97;;
1925;SDS011;964;42.606;23.588;2023-11-21T09:28:33;10.93;;;9.00;;
1925;SDS011;964;42.606;23.588;2023-11-21T09:31:02;38.03;;;22.50;;
1925;SDS011;964;42.606;23.588;2023-11-21T09:33:31;16.47;;;12.90;;
1925;SDS011;964;42.606;23.588;2023-11-21T09:35:59;29.90;;;17.00;;
1925;SDS011;964;42.606;23.588;2023-11-21T09:38:26;31.90;;;17.97;;
1925;SDS011;964;42.606;23.588;2023-11-21T09:40:54;17.30;;;13.57;;
1925;SDS011;964;42.606;23.588;2023-11-21T09:43:23;18.63;;;13.27;;
1925;SDS011;964;42.606;23.588;2023-11-21T09:45:54;15.90;;;11.97;;
1925;SDS011;964;42.606;23.588;2023-11-21T09:48:26;16.60;;;12.10;;
1925;SDS011;964;42.606;23.588;2023-11-21T09:50:54;19.73;;;13.67;;
1925;SDS011;964;42.606;23.588;2023-11-21T09:53:21;19.70;;;12.17;;
1925;SDS011;964;42.606;23.588;2023-11-21T09:55:50;18.23;;;10.57;;
1925;SDS011;964;42.606;23.588;2023-11-21T09:58:19;12.57;;;9.50;;
1925;SDS011;964;42.606;23.588;2023-11-21T10:00:47;11.00;;;8.73;;
1925;SDS011;964;42.606;23.588;2023-11-21T10:03:15;11.00;;;9.03;;
1925;SDS011;964;42.606;23.588;2023-11-21T10:05:42;14.13;;;9.20;;
1925;SDS011;964;42.606;23.588;2023-11-21T10:08:12;11.40;;;9.77;;
1925;SDS011;964;42.606;23.588;2023-11-21T10:10:42;13.37;;;10.73;;
1925;SDS011;964;42.606;23.588;2023-11-21T10:13:11;14.83;;;10.80;;
1925;SDS011;964;42.606;23.588;2023-11-21T10:15:41;14.73;;;10.27;;
1925;SDS011;964;42.606;23.588;2023-11-21T10:18:13;12.90;;;9.40;;
1925;SDS011;964;42.606;23.588;2023-11-21T10:20:41;11.20;;;9.30;;
1925;SDS011;964;42.606;23.588;2023-11-21T10:23:08;11.20;;;8.63;;
1925;SDS011;964;42.606;23.588;2023-11-21T10:25:39;9.80;;;7.50;;
1925;SDS011;964;42.606;23.588;2023-11-21T10:28:06;8.93;;;7.60;;
1925;SDS011;964;42.606;23.588;2023-11-21T10:30:34;10.10;;;8.03;;
1925;SDS011;964;42.606;23.588;2023-11-21T10:33:02;8.43;;;7.20;;
1925;SDS011;964;42.606;23.588;2023-11-21T10:35:39;12.37;;;9.33;;
1925;SDS011;964;42.606;23.588;2023-11-21T10:38:11;12.17;;;9.03;;
1925;SDS011;964;42.606;23.588;2023-11-21T10:40:40;11.60;;;8.80;;
1925;SDS011;964;42.606;23.588;2023-11-21T10:43:07;13.33;;;9.30;;
1925;SDS011;964;42.606;23.588;2023-11-21T10:45:35;13.63;;;10.67;;
1925;SDS011;964;42.606;23.588;2023-11-21T10:48:04;16.00;;;10.17;;
1925;SDS011;964;42.606;23.588;2023-11-21T10:50:33;9.40;;;7.20;;
1925;SDS011;964;42.606;23.588;2023-11-21T10:53:01;10.17;;;7.43;;
1925;SDS011;964;42.606;23.588;2023-11-21T10:55:28;11.07;;;8.90;;
1925;SDS011;964;42.606;23.588;2023-11-21T10:58:03;9.10;;;7.90;;
1925;SDS011;964;42.606;23.588;2023-11-21T11:00:31;8.70;;;6.87;;
1925;SDS011;964;42.606;23.588;2023-11-21T11:02:59;12.43;;;7.90;;
1925;SDS011;964;42.606;23.588;2023-11-21T11:05:27;9.00;;;6.97;;
1925;SDS011;964;42.606;23.588;2023-11-21T11:07:57;10.23;;;7.70;;
1925;SDS011;964;42.606;23.588;2023-11-21T11:10:26;12.00;;;8.40;;
1925;SDS011;964;42.606;23.588;2023-11-21T11:12:54;11.57;;;7.53;;
1925;SDS011;964;42.606;23.588;2023-11-21T11:15:23;13.17;;;9.30;;
1925;SDS011;964;42.606;23.588;2023-11-21T11:17:52;11.07;;;8.00;;
1925;SDS011;964;42.606;23.588;2023-11-21T11:20:21;10.80;;;7.70;;
1925;SDS011;964;42.606;23.588;2023-11-21T11:22:51;10.43;;;7.93;;
1925;SDS011;964;42.606;23.588;2023-11-21T11:25:35;9.37;;;7.60;;
1925;SDS011;964;42.606;23.588;2023-11-21T11:28:11;9.90;;;7.60;;
1925;SDS011;964;42.606;23.588;2023-11-21T11:30:50;9.17;;;7.00;;
1925;SDS011;964;42.606;23.588;2023-11-21T11:33:31;10.10;;;7.70;;
1925;SDS011;964;42.606;23.588;2023-11-21T11:36:03;10.70;;;7.33;;
1925;SDS011;964;42.606;23.588;2023-11-21T11:38:34;10.43;;;8.10;;
1925;SDS011;964;42.606;23.588;2023-11-21T11:41:02;12.10;;;8.17;;
1925;SDS011;964;42.606;23.588;2023-11-21T11:43:30;12.40;;;8.57;;
1925;SDS011;964;42.606;23.588;2023-11-21T11:46:06;9.27;;;7.60;;
1925;SDS011;964;42.606;23.588;2023-11-21T11:48:34;10.27;;;8.60;;
1925;SDS011;964;42.606;23.588;2023-11-21T11:51:04;15.73;;;9.40;;
1925;SDS011;964;42.606;23.588;2023-11-21T11:53:37;10.90;;;8.30;;
1925;SDS011;964;42.606;23.588;2023-11-21T11:56:20;12.07;;;8.93;;
1925;SDS011;964;42.606;23.588;2023-11-21T11:58:50;15.90;;;9.10;;
1925;SDS011;964;42.606;23.588;2023-11-21T12:01:19;11.97;;;9.43;;
1925;SDS011;964;42.606;23.588;2023-11-21T12:07:02;12.63;;;8.70;;
1925;SDS011;964;42.606;23.588;2023-11-21T12:09:30;10.63;;;8.13;;
1925;SDS011;964;42.606;23.588;2023-11-21T12:11:58;13.20;;;8.43;;
1925;SDS011;964;42.606;23.588;2023-11-21T12:14:26;12.20;;;8.80;;
1925;SDS011;964;42.606;23.588;2023-11-21T12:16:55;9.07;;;7.63;;
1925;SDS011;964;42.606;23.588;2023-11-21T12:19:22;14.33;;;8.47;;
1925;SDS011;964;42.606;23.588;2023-11-21T12:21:49;12.20;;;7.70;;
1925;SDS011;964;42.606;23.588;2023-11-21T12:24:17;9.87;;;7.03;;
1925;SDS011;964;42.606;23.588;2023-11-21T12:26:44;10.13;;;8.10;;
1925;SDS011;964;42.606;23.588;2023-11-21T12:29:11;13.70;;;8.37;;
1925;SDS011;964;42.606;23.588;2023-11-21T12:31:38;12.80;;;8.97;;
1925;SDS011;964;42.606;23.588;2023-11-21T12:34:06;17.63;;;10.03;;
1925;SDS011;964;42.606;23.588;2023-11-21T12:36:36;11.07;;;8.67;;
1925;SDS011;964;42.606;23.588;2023-11-21T12:39:03;11.03;;;8.10;;
1925;SDS011;964;42.606;23.588;2023-11-21T12:41:30;11.30;;;8.00;;
1925;SDS011;964;42.606;23.588;2023-11-21T12:43:57;15.30;;;7.20;;
1925;SDS011;964;42.606;23.588;2023-11-21T12:46:24;7.07;;;6.33;;
1925;SDS011;964;42.606;23.588;2023-11-21T12:48:54;11.20;;;5.60;;
1925;SDS011;964;42.606;23.588;2023-11-21T12:51:23;11.47;;;6.73;;
1925;SDS011;964;42.606;23.588;2023-11-21T12:53:50;8.13;;;6.90;;
1925;SDS011;964;42.606;23.588;2023-11-21T12:56:18;10.97;;;7.63;;
1925;SDS011;964;42.606;23.588;2023-11-21T12:58:48;8.50;;;7.13;;
1925;SDS011;964;42.606;23.588;2023-11-21T13:01:15;12.40;;;8.10;;
1925;SDS011;964;42.606;23.588;2023-11-21T13:03:45;10.40;;;7.83;;
1925;SDS011;964;42.606;23.588;2023-11-21T13:06:15;12.40;;;8.50;;
1925;SDS011;964;42.606;23.588;2023-11-21T13:08:45;14.40;;;9.87;;
1925;SDS011;964;42.606;23.588;2023-11-21T13:11:12;11.70;;;9.27;;
1925;SDS011;964;42.606;23.588;2023-11-21T13:13:40;13.97;;;9.57;;
1925;SDS011;964;42.606;23.588;2023-11-21T13:16:09;11.40;;;9.00;;
1925;SDS011;964;42.606;23.588;2023-11-21T13:18:36;13.17;;;8.93;;
1925;SDS011;964;42.606;23.588;2023-11-21T13:21:05;12.27;;;9.57;;
1925;SDS011;964;42.606;23.588;2023-11-21T13:23:36;16.10;;;9.93;;
1925;SDS011;964;42.606;23.588;2023-11-21T13:26:05;15.37;;;11.27;;
1925;SDS011;964;42.606;23.588;2023-11-21T13:28:32;18.37;;;10.50;;
1925;SDS011;964;42.606;23.588;2023-11-21T13:30:59;11.97;;;9.73;;
1925;SDS011;964;42.606;23.588;2023-11-21T13:33:34;18.80;;;10.87;;
1925;SDS011;964;42.606;23.588;2023-11-21T13:36:03;17.17;;;10.90;;
1925;SDS011;964;42.606;23.588;2023-11-21T13:38:33;17.87;;;10.47;;
1925;SDS011;964;42.606;23.588;2023-11-21T13:41:01;15.20;;;10.67;;
1925;SDS011;964;42.606;23.588;2023-11-21T13:43:29;15.87;;;11.27;;
1925;SDS011;964;42.606;23.588;2023-11-21T13:45:56;16.37;;;10.90;;
1925;SDS011;964;42.606;23.588;2023-11-21T13:48:27;19.10;;;11.50;;
1925;SDS011;964;42.606;23.588;2023-11-21T13:50:59;17.27;;;11.70;;
1925;SDS011;964;42.606;23.588;2023-11-21T13:53:35;17.10;;;12.00;;
1925;SDS011;964;42.606;23.588;2023-11-21T13:56:04;20.70;;;14.70;;
1925;SDS011;964;42.606;23.588;2023-11-21T13:58:33;19.80;;;13.00;;
1925;SDS011;964;42.606;23.588;2023-11-21T14:01:09;26.30;;;13.57;;
1925;SDS011;964;42.606;23.588;2023-11-21T14:03:49;16.73;;;11.30;;
1925;SDS011;964;42.606;23.588;2023-11-21T14:06:21;19.17;;;12.40;;
1925;SDS011;964;42.606;23.588;2023-11-21T14:08:53;18.77;;;12.30;;
1925;SDS011;964;42.606;23.588;2023-11-21T14:11:21;18.03;;;12.20;;
1925;SDS011;964;42.606;23.588;2023-11-21T14:13:49;15.87;;;11.43;;
1925;SDS011;964;42.606;23.588;2023-11-21T14:16:16;22.20;;;14.83;;
1925;SDS011;964;42.606;23.588;2023-11-21T14:18:43;21.20;;;13.10;;
1925;SDS011;964;42.606;23.588;2023-11-21T14:21:19;25.47;;;13.90;;
1925;SDS011;964;42.606;23.588;2023-11-21T14:23:46;21.60;;;13.90;;
1925;SDS011;964;42.606;23.588;2023-11-21T14:26:14;22.33;;;14.90;;
1925;SDS011;964;42.606;23.588;2023-11-21T14:28:42;17.30;;;12.23;;
1925;SDS011;964;42.606;23.588;2023-11-21T14:31:10;20.97;;;13.70;;
1925;SDS011;964;42.606;23.588;2023-11-21T14:33:40;30.33;;;16.13;;
1925;SDS011;964;42.606;23.588;2023-11-21T14:36:07;28.27;;;17.00;;
1925;SDS011;964;42.606;23.588;2023-11-21T14:38:35;27.50;;;17.87;;
1925;SDS011;964;42.606;23.588;2023-11-21T14:41:02;29.83;;;19.33;;
1925;SDS011;964;42.606;23.588;2023-11-21T14:43:29;36.30;;;17.00;;
1925;SDS011;964;42.606;23.588;2023-11-21T14:46:00;23.50;;;16.30;;
1925;SDS011;964;42.606;23.588;2023-11-21T14:48:29;22.30;;;15.33;;
1925;SDS011;964;42.606;23.588;2023-11-21T14:51:07;31.70;;;16.67;;
1925;SDS011;964;42.606;23.588;2023-11-21T14:53:56;26.70;;;16.97;;
1925;SDS011;964;42.606;23.588;2023-11-21T14:56:26;30.23;;;18.63;;
1925;SDS011;964;42.606;23.588;2023-11-21T14:58:56;34.93;;;17.70;;
1925;SDS011;964;42.606;23.588;2023-11-21T15:01:22;30.63;;;17.33;;
1925;SDS011;964;42.606;23.588;2023-11-21T15:04:09;29.80;;;17.03;;
1925;SDS011;964;42.606;23.588;2023-11-21T15:06:46;32.90;;;21.30;;
1925;SDS011;964;42.606;23.588;2023-11-21T15:09:13;31.77;;;20.87;;